sensor_id;sensor_type;location;lat;lon;timestamp;temperature;humidity
13848;DHT22;6994;49.752;6.094;2022-09-11T00:01:21;16.50;99.90
13848;DHT22;6994;49.752;6.094;2022-09-11T00:03:48;16.80;99.90
13848;DHT22;6994;49.752;6.094;2022-09-11T00:06:18;16.80;99.90
13848;DHT22;6994;49.752;6.094;2022-09-11T00:08:46;16.70;99.90
13848;DHT22;6994;49.752;6.094;2022-09-11T00:11:14;16.60;99.90
13848;DHT22;6994;49.752;6.094;2022-09-11T00:13:40;16.60;99.90
13848;DHT22;6994;49.752;6.094;2022-09-11T00:16:16;16.50;99.90
13848;DHT22;6994;49.752;6.094;2022-09-11T00:18:34;16.50;99.90
13848;DHT22;6994;49.752;6.094;2022-09-11T00:21:02;16.50;99.90
13848;DHT22;6994;49.752;6.094;2022-09-11T00:23:29;16.50;99.90
13848;DHT22;6994;49.752;6.094;2022-09-11T00:25:59;16.40;99.90
13848;DHT22;6994;49.752;6.094;2022-09-11T00:28:24;16.50;99.90
13848;DHT22;6994;49.752;6.094;2022-09-11T00:31:00;16.60;99.90
13848;DHT22;6994;49.752;6.094;2022-09-11T00:33:27;16.70;99.90
13848;DHT22;6994;49.752;6.094;2022-09-11T00:35:58;16.60;99.90
13848;DHT22;6994;49.752;6.094;2022-09-11T00:38:21;16.50;99.90
13848;DHT22;6994;49.752;6.094;2022-09-11T00:40:49;16.50;99.90
13848;DHT22;6994;49.752;6.094;2022-09-11T00:43:16;16.40;99.90
13848;DHT22;6994;49.752;6.094;2022-09-11T00:45:43;16.40;99.90
13848;DHT22;6994;49.752;6.094;2022-09-11T00:48:12;16.20;99.90
13848;DHT22;6994;49.752;6.094;2022-09-11T00:50:40;16.10;99.90
13848;DHT22;6994;49.752;6.094;2022-09-11T00:53:06;16.10;99.90
13848;DHT22;6994;49.752;6.094;2022-09-11T00:55:33;16.10;99.90
13848;DHT22;6994;49.752;6.094;2022-09-11T00:58:02;16.00;99.90
13848;DHT22;6994;49.752;6.094;2022-09-11T01:00:28;15.80;99.90
13848;DHT22;6994;49.752;6.094;2022-09-11T01:02:56;15.80;99.90
13848;DHT22;6994;49.752;6.094;2022-09-11T01:05:23;15.70;99.90
13848;DHT22;6994;49.752;6.094;2022-09-11T01:07:51;15.60;99.90
13848;DHT22;6994;49.752;6.094;2022-09-11T01:10:17;15.70;99.90
13848;DHT22;6994;49.752;6.094;2022-09-11T01:17:54;15.50;99.90
13848;DHT22;6994;49.752;6.094;2022-09-11T01:20:20;15.70;99.90
13848;DHT22;6994;49.752;6.094;2022-09-11T01:25:57;15.90;99.90
13848;DHT22;6994;49.752;6.094;2022-09-11T01:28:22;15.80;99.90
13848;DHT22;6994;49.752;6.094;2022-09-11T01:30:49;15.80;99.90
13848;DHT22;6994;49.752;6.094;2022-09-11T01:33:41;15.60;99.90
13848;DHT22;6994;49.752;6.094;2022-09-11T01:38:47;15.40;99.90
13848;DHT22;6994;49.752;6.094;2022-09-11T01:41:20;15.30;99.90
13848;DHT22;6994;49.752;6.094;2022-09-11T01:46:24;15.10;99.90
13848;DHT22;6994;49.752;6.094;2022-09-11T01:49:14;15.00;99.90
13848;DHT22;6994;49.752;6.094;2022-09-11T01:51:20;14.90;99.90
13848;DHT22;6994;49.752;6.094;2022-09-11T01:53:47;15.00;99.90
13848;DHT22;6994;49.752;6.094;2022-09-11T01:56:21;15.10;99.90
13848;DHT22;6994;49.752;6.094;2022-09-11T01:58:43;15.00;99.90
13848;DHT22;6994;49.752;6.094;2022-09-11T02:01:19;14.80;99.90
13848;DHT22;6994;49.752;6.094;2022-09-11T02:03:46;14.80;99.90
13848;DHT22;6994;49.752;6.094;2022-09-11T02:06:13;14.80;99.90
13848;DHT22;6994;49.752;6.094;2022-09-11T02:08:49;14.70;99.90
13848;DHT22;6994;49.752;6.094;2022-09-11T02:11:12;14.70;99.90
13848;DHT22;6994;49.752;6.094;2022-09-11T02:19:13;14.70;99.90
13848;DHT22;6994;49.752;6.094;2022-09-11T02:21:40;14.60;99.90
13848;DHT22;6994;49.752;6.094;2022-09-11T02:24:07;14.60;99.90
13848;DHT22;6994;49.752;6.094;2022-09-11T02:26:36;14.60;99.90
13848;DHT22;6994;49.752;6.094;2022-09-11T02:29:02;14.60;99.90
13848;DHT22;6994;49.752;6.094;2022-09-11T02:31:29;14.60;99.90
13848;DHT22;6994;49.752;6.094;2022-09-11T02:33:57;14.70;99.90
13848;DHT22;6994;49.752;6.094;2022-09-11T02:36:36;14.70;99.90
13848;DHT22;6994;49.752;6.094;2022-09-11T02:44:56;14.90;99.90
13848;DHT22;6994;49.752;6.094;2022-09-11T02:52:45;14.60;99.90
13848;DHT22;6994;49.752;6.094;2022-09-11T02:55:15;14.80;99.90
13848;DHT22;6994;49.752;6.094;2022-09-11T02:57:46;14.70;99.90
13848;DHT22;6994;49.752;6.094;2022-09-11T03:00:11;14.70;99.90
13848;DHT22;6994;49.752;6.094;2022-09-11T03:02:39;14.60;99.90
13848;DHT22;6994;49.752;6.094;2022-09-11T03:05:06;14.60;99.90
13848;DHT22;6994;49.752;6.094;2022-09-11T03:07:33;14.70;99.90
13848;DHT22;6994;49.752;6.094;2022-09-11T03:10:00;14.60;99.90
13848;DHT22;6994;49.752;6.094;2022-09-11T03:12:27;14.60;99.90
13848;DHT22;6994;49.752;6.094;2022-09-11T03:14:54;14.50;99.90
13848;DHT22;6994;49.752;6.094;2022-09-11T03:17:23;14.50;99.90
13848;DHT22;6994;49.752;6.094;2022-09-11T03:19:50;14.40;99.90
13848;DHT22;6994;49.752;6.094;2022-09-11T03:22:18;14.40;99.90
13848;DHT22;6994;49.752;6.094;2022-09-11T03:24:45;14.40;99.90
13848;DHT22;6994;49.752;6.094;2022-09-11T03:27:12;14.30;99.90
13848;DHT22;6994;49.752;6.094;2022-09-11T03:29:40;14.40;99.90
13848;DHT22;6994;49.752;6.094;2022-09-11T03:32:08;14.30;99.90
13848;DHT22;6994;49.752;6.094;2022-09-11T03:34:36;14.20;99.90
13848;DHT22;6994;49.752;6.094;2022-09-11T03:37:03;14.20;99.90
13848;DHT22;6994;49.752;6.094;2022-09-11T03:39:30;14.10;99.90
13848;DHT22;6994;49.752;6.094;2022-09-11T03:41:58;14.00;99.90
13848;DHT22;6994;49.752;6.094;2022-09-11T03:44:26;14.10;99.90
13848;DHT22;6994;49.752;6.094;2022-09-11T03:46:54;14.00;99.90
13848;DHT22;6994;49.752;6.094;2022-09-11T03:49:21;14.00;99.90
13848;DHT22;6994;49.752;6.094;2022-09-11T03:51:48;13.90;99.90
13848;DHT22;6994;49.752;6.094;2022-09-11T03:54:15;13.90;99.90
13848;DHT22;6994;49.752;6.094;2022-09-11T03:56:43;14.00;99.90
13848;DHT22;6994;49.752;6.094;2022-09-11T03:59:11;14.00;99.90
13848;DHT22;6994;49.752;6.094;2022-09-11T04:01:38;13.90;99.90
13848;DHT22;6994;49.752;6.094;2022-09-11T04:04:06;13.90;99.90
13848;DHT22;6994;49.752;6.094;2022-09-11T04:06:33;13.90;99.90
13848;DHT22;6994;49.752;6.094;2022-09-11T04:09:01;13.90;99.90
13848;DHT22;6994;49.752;6.094;2022-09-11T04:11:29;13.90;99.90
13848;DHT22;6994;49.752;6.094;2022-09-11T04:13:57;13.90;99.90
13848;DHT22;6994;49.752;6.094;2022-09-11T04:16:24;13.90;99.90
13848;DHT22;6994;49.752;6.094;2022-09-11T04:18:51;14.00;99.90
13848;DHT22;6994;49.752;6.094;2022-09-11T04:21:18;14.00;99.90
13848;DHT22;6994;49.752;6.094;2022-09-11T04:23:50;14.40;99.90
13848;DHT22;6994;49.752;6.094;2022-09-11T04:26:19;14.40;99.90
13848;DHT22;6994;49.752;6.094;2022-09-11T04:28:45;14.40;99.90
13848;DHT22;6994;49.752;6.094;2022-09-11T04:31:12;14.40;99.90
13848;DHT22;6994;49.752;6.094;2022-09-11T04:33:39;14.40;99.90
13848;DHT22;6994;49.752;6.094;2022-09-11T04:36:08;14.30;99.90
13848;DHT22;6994;49.752;6.094;2022-09-11T04:38:34;14.30;99.90
13848;DHT22;6994;49.752;6.094;2022-09-11T04:41:02;14.30;99.90
13848;DHT22;6994;49.752;6.094;2022-09-11T04:43:29;14.30;99.90
13848;DHT22;6994;49.752;6.094;2022-09-11T04:46:03;14.60;99.90
13848;DHT22;6994;49.752;6.094;2022-09-11T04:48:27;14.60;99.90
13848;DHT22;6994;49.752;6.094;2022-09-11T04:51:02;14.60;99.90
13848;DHT22;6994;49.752;6.094;2022-09-11T04:53:25;14.60;99.90
13848;DHT22;6994;49.752;6.094;2022-09-11T04:55:59;14.60;99.90
13848;DHT22;6994;49.752;6.094;2022-09-11T04:58:20;14.50;99.90
13848;DHT22;6994;49.752;6.094;2022-09-11T05:00:47;14.50;99.90
13848;DHT22;6994;49.752;6.094;2022-09-11T05:03:15;14.50;99.90
13848;DHT22;6994;49.752;6.094;2022-09-11T05:05:42;14.50;99.90
13848;DHT22;6994;49.752;6.094;2022-09-11T05:08:10;14.80;99.90
13848;DHT22;6994;49.752;6.094;2022-09-11T05:10:38;14.70;99.90
13848;DHT22;6994;49.752;6.094;2022-09-11T05:13:05;14.70;99.90
13848;DHT22;6994;49.752;6.094;2022-09-11T05:15:32;14.60;99.90
13848;DHT22;6994;49.752;6.094;2022-09-11T05:17:59;14.50;99.90
13848;DHT22;6994;49.752;6.094;2022-09-11T05:20:27;14.50;99.90
13848;DHT22;6994;49.752;6.094;2022-09-11T05:22:54;14.40;99.90
13848;DHT22;6994;49.752;6.094;2022-09-11T05:25:22;14.20;99.90
13848;DHT22;6994;49.752;6.094;2022-09-11T05:27:49;14.20;99.90
13848;DHT22;6994;49.752;6.094;2022-09-11T05:30:16;14.20;99.90
13848;DHT22;6994;49.752;6.094;2022-09-11T05:32:43;14.10;99.90
13848;DHT22;6994;49.752;6.094;2022-09-11T05:35:11;14.30;99.90
13848;DHT22;6994;49.752;6.094;2022-09-11T05:37:39;14.20;99.90
13848;DHT22;6994;49.752;6.094;2022-09-11T05:40:07;14.20;99.90
13848;DHT22;6994;49.752;6.094;2022-09-11T05:42:34;14.20;99.90
13848;DHT22;6994;49.752;6.094;2022-09-11T05:45:01;14.10;99.90
13848;DHT22;6994;49.752;6.094;2022-09-11T05:47:28;14.00;99.90
13848;DHT22;6994;49.752;6.094;2022-09-11T05:49:55;14.00;99.90
13848;DHT22;6994;49.752;6.094;2022-09-11T05:52:23;14.00;99.90
13848;DHT22;6994;49.752;6.094;2022-09-11T05:54:51;14.00;99.90
13848;DHT22;6994;49.752;6.094;2022-09-11T05:57:19;13.90;99.90
13848;DHT22;6994;49.752;6.094;2022-09-11T05:59:46;13.90;99.90
13848;DHT22;6994;49.752;6.094;2022-09-11T06:02:13;13.90;99.90
13848;DHT22;6994;49.752;6.094;2022-09-11T06:04:41;14.30;99.90
13848;DHT22;6994;49.752;6.094;2022-09-11T06:07:09;14.30;99.90
13848;DHT22;6994;49.752;6.094;2022-09-11T06:09:36;14.30;99.90
13848;DHT22;6994;49.752;6.094;2022-09-11T06:12:03;14.40;99.90
13848;DHT22;6994;49.752;6.094;2022-09-11T06:14:31;14.40;99.90
13848;DHT22;6994;49.752;6.094;2022-09-11T06:16:58;14.70;99.90
13848;DHT22;6994;49.752;6.094;2022-09-11T06:19:25;14.80;99.90
13848;DHT22;6994;49.752;6.094;2022-09-11T06:21:52;14.80;99.90
13848;DHT22;6994;49.752;6.094;2022-09-11T06:24:20;14.80;99.90
13848;DHT22;6994;49.752;6.094;2022-09-11T06:26:48;14.80;99.90
13848;DHT22;6994;49.752;6.094;2022-09-11T06:29:16;14.80;99.90
13848;DHT22;6994;49.752;6.094;2022-09-11T06:31:44;15.10;99.90
13848;DHT22;6994;49.752;6.094;2022-09-11T06:34:11;15.10;99.90
13848;DHT22;6994;49.752;6.094;2022-09-11T06:36:39;15.10;99.90
13848;DHT22;6994;49.752;6.094;2022-09-11T06:39:06;15.10;99.90
13848;DHT22;6994;49.752;6.094;2022-09-11T06:41:34;15.00;99.90
13848;DHT22;6994;49.752;6.094;2022-09-11T06:44:02;15.10;99.90
13848;DHT22;6994;49.752;6.094;2022-09-11T06:46:29;15.00;99.90
13848;DHT22;6994;49.752;6.094;2022-09-11T06:48:56;15.10;99.90
13848;DHT22;6994;49.752;6.094;2022-09-11T06:51:23;15.30;99.90
13848;DHT22;6994;49.752;6.094;2022-09-11T06:53:54;15.40;99.90
13848;DHT22;6994;49.752;6.094;2022-09-11T06:56:21;15.40;99.90
13848;DHT22;6994;49.752;6.094;2022-09-11T06:58:48;15.50;99.90
13848;DHT22;6994;49.752;6.094;2022-09-11T07:01:16;15.70;99.90
13848;DHT22;6994;49.752;6.094;2022-09-11T07:03:50;16.00;99.90
13848;DHT22;6994;49.752;6.094;2022-09-11T07:06:13;16.00;99.90
13848;DHT22;6994;49.752;6.094;2022-09-11T07:08:40;16.00;99.90
13848;DHT22;6994;49.752;6.094;2022-09-11T07:11:07;15.90;99.90
13848;DHT22;6994;49.752;6.094;2022-09-11T07:13:35;15.80;99.90
13848;DHT22;6994;49.752;6.094;2022-09-11T07:16:04;16.00;99.90
13848;DHT22;6994;49.752;6.094;2022-09-11T07:18:36;15.90;99.90
13848;DHT22;6994;49.752;6.094;2022-09-11T07:21:06;15.90;99.90
13848;DHT22;6994;49.752;6.094;2022-09-11T07:23:33;15.90;99.90
13848;DHT22;6994;49.752;6.094;2022-09-11T07:26:03;15.80;99.90
13848;DHT22;6994;49.752;6.094;2022-09-11T07:28:30;15.90;99.90
13848;DHT22;6994;49.752;6.094;2022-09-11T07:31:14;15.80;99.90
13848;DHT22;6994;49.752;6.094;2022-09-11T07:33:41;15.90;99.90
13848;DHT22;6994;49.752;6.094;2022-09-11T07:36:10;15.90;99.90
13848;DHT22;6994;49.752;6.094;2022-09-11T07:38:40;15.90;99.90
13848;DHT22;6994;49.752;6.094;2022-09-11T07:41:07;15.90;99.90
13848;DHT22;6994;49.752;6.094;2022-09-11T07:43:34;16.00;99.90
13848;DHT22;6994;49.752;6.094;2022-09-11T07:46:02;16.10;99.90
13848;DHT22;6994;49.752;6.094;2022-09-11T07:48:30;16.20;99.90
13848;DHT22;6994;49.752;6.094;2022-09-11T07:51:02;16.10;99.90
13848;DHT22;6994;49.752;6.094;2022-09-11T07:53:24;16.20;99.90
13848;DHT22;6994;49.752;6.094;2022-09-11T07:55:51;16.30;99.90
13848;DHT22;6994;49.752;6.094;2022-09-11T07:58:19;16.70;99.90
13848;DHT22;6994;49.752;6.094;2022-09-11T08:00:47;16.70;99.90
13848;DHT22;6994;49.752;6.094;2022-09-11T08:03:14;16.70;99.90
13848;DHT22;6994;49.752;6.094;2022-09-11T08:05:42;16.80;99.90
13848;DHT22;6994;49.752;6.094;2022-09-11T08:08:09;16.80;99.90
13848;DHT22;6994;49.752;6.094;2022-09-11T08:10:37;17.20;99.90
13848;DHT22;6994;49.752;6.094;2022-09-11T08:13:05;17.30;99.90
13848;DHT22;6994;49.752;6.094;2022-09-11T08:15:33;17.40;99.90
13848;DHT22;6994;49.752;6.094;2022-09-11T08:18:00;17.40;99.90
13848;DHT22;6994;49.752;6.094;2022-09-11T08:20:27;17.50;99.90
13848;DHT22;6994;49.752;6.094;2022-09-11T08:22:54;17.60;99.90
13848;DHT22;6994;49.752;6.094;2022-09-11T08:25:22;18.10;99.90
13848;DHT22;6994;49.752;6.094;2022-09-11T08:27:50;18.40;99.90
13848;DHT22;6994;49.752;6.094;2022-09-11T08:30:18;18.30;99.90
13848;DHT22;6994;49.752;6.094;2022-09-11T08:32:45;18.50;99.90
13848;DHT22;6994;49.752;6.094;2022-09-11T08:35:12;18.80;99.90
13848;DHT22;6994;49.752;6.094;2022-09-11T08:37:39;19.20;99.90
13848;DHT22;6994;49.752;6.094;2022-09-11T08:40:06;19.50;99.90
13848;DHT22;6994;49.752;6.094;2022-09-11T08:42:34;19.60;99.90
13848;DHT22;6994;49.752;6.094;2022-09-11T08:45:01;19.70;99.90
13848;DHT22;6994;49.752;6.094;2022-09-11T08:47:30;19.80;99.90
13848;DHT22;6994;49.752;6.094;2022-09-11T08:50:00;20.20;99.90
13848;DHT22;6994;49.752;6.094;2022-09-11T08:52:25;20.20;99.90
13848;DHT22;6994;49.752;6.094;2022-09-11T08:54:53;20.10;99.90
13848;DHT22;6994;49.752;6.094;2022-09-11T08:57:33;20.10;99.90
13848;DHT22;6994;49.752;6.094;2022-09-11T09:05:32;19.60;99.90
13848;DHT22;6994;49.752;6.094;2022-09-11T09:16:27;19.20;99.90
13848;DHT22;6994;49.752;6.094;2022-09-11T09:19:05;19.00;99.90
13848;DHT22;6994;49.752;6.094;2022-09-11T09:23:56;18.70;99.90
13848;DHT22;6994;49.752;6.094;2022-09-11T09:26:36;18.70;99.90
13848;DHT22;6994;49.752;6.094;2022-09-11T09:28:51;18.70;99.90
13848;DHT22;6994;49.752;6.094;2022-09-11T09:31:21;18.80;99.90
13848;DHT22;6994;49.752;6.094;2022-09-11T09:33:53;19.30;99.90
13848;DHT22;6994;49.752;6.094;2022-09-11T09:38:48;19.50;99.90
13848;DHT22;6994;49.752;6.094;2022-09-11T09:46:47;19.80;99.90
13848;DHT22;6994;49.752;6.094;2022-09-11T09:49:21;19.80;99.90
13848;DHT22;6994;49.752;6.094;2022-09-11T09:51:48;19.90;99.90
13848;DHT22;6994;49.752;6.094;2022-09-11T09:54:14;20.00;99.90
13848;DHT22;6994;49.752;6.094;2022-09-11T09:56:45;20.10;99.90
13848;DHT22;6994;49.752;6.094;2022-09-11T09:59:15;20.30;99.90
13848;DHT22;6994;49.752;6.094;2022-09-11T10:01:42;20.50;99.90
13848;DHT22;6994;49.752;6.094;2022-09-11T10:06:45;21.10;99.90
13848;DHT22;6994;49.752;6.094;2022-09-11T10:09:24;21.30;99.90
13848;DHT22;6994;49.752;6.094;2022-09-11T10:11:57;21.40;99.90
13848;DHT22;6994;49.752;6.094;2022-09-11T10:14:23;21.40;99.90
13848;DHT22;6994;49.752;6.094;2022-09-11T10:16:50;21.30;99.90
13848;DHT22;6994;49.752;6.094;2022-09-11T10:19:34;21.20;99.90
13848;DHT22;6994;49.752;6.094;2022-09-11T10:22:26;21.10;99.90
13848;DHT22;6994;49.752;6.094;2022-09-11T10:24:30;21.00;99.90
13848;DHT22;6994;49.752;6.094;2022-09-11T10:26:57;20.80;99.90
13848;DHT22;6994;49.752;6.094;2022-09-11T10:29:27;20.70;99.90
13848;DHT22;6994;49.752;6.094;2022-09-11T10:31:55;20.70;99.90
13848;DHT22;6994;49.752;6.094;2022-09-11T10:34:23;20.80;99.90
13848;DHT22;6994;49.752;6.094;2022-09-11T10:37:00;20.80;99.90
13848;DHT22;6994;49.752;6.094;2022-09-11T10:39:27;20.90;99.90
13848;DHT22;6994;49.752;6.094;2022-09-11T10:41:55;20.90;99.90
13848;DHT22;6994;49.752;6.094;2022-09-11T10:44:22;20.90;99.90
13848;DHT22;6994;49.752;6.094;2022-09-11T10:47:14;20.80;99.90
13848;DHT22;6994;49.752;6.094;2022-09-11T10:49:41;20.90;99.90
13848;DHT22;6994;49.752;6.094;2022-09-11T11:00:17;22.00;99.90
13848;DHT22;6994;49.752;6.094;2022-09-11T11:02:53;21.90;99.90
13848;DHT22;6994;49.752;6.094;2022-09-11T11:11:32;23.00;99.90
13848;DHT22;6994;49.752;6.094;2022-09-11T11:14:44;23.20;99.90
13848;DHT22;6994;49.752;6.094;2022-09-11T11:16:49;23.30;99.90
13848;DHT22;6994;49.752;6.094;2022-09-11T11:19:22;23.20;99.90
13848;DHT22;6994;49.752;6.094;2022-09-11T11:30:11;22.90;99.90
13848;DHT22;6994;49.752;6.094;2022-09-11T11:35:44;24.40;99.90
13848;DHT22;6994;49.752;6.094;2022-09-11T11:38:37;25.10;99.90
13848;DHT22;6994;49.752;6.094;2022-09-11T11:41:16;25.50;99.90
13848;DHT22;6994;49.752;6.094;2022-09-11T11:43:41;25.80;99.90
13848;DHT22;6994;49.752;6.094;2022-09-11T11:46:33;27.60;99.90
13848;DHT22;6994;49.752;6.094;2022-09-11T11:49:02;27.50;99.90
13848;DHT22;6994;49.752;6.094;2022-09-11T11:51:40;28.60;99.90
13848;DHT22;6994;49.752;6.094;2022-09-11T11:54:10;28.60;99.90
13848;DHT22;6994;49.752;6.094;2022-09-11T11:56:37;29.20;99.90
13848;DHT22;6994;49.752;6.094;2022-09-11T12:01:49;32.00;93.70
13848;DHT22;6994;49.752;6.094;2022-09-11T12:04:31;31.90;93.60
13848;DHT22;6994;49.752;6.094;2022-09-11T12:06:53;32.30;93.20
13848;DHT22;6994;49.752;6.094;2022-09-11T12:09:20;32.40;94.70
13848;DHT22;6994;49.752;6.094;2022-09-11T12:11:48;33.60;86.90
13848;DHT22;6994;49.752;6.094;2022-09-11T12:14:28;32.70;83.10
13848;DHT22;6994;49.752;6.094;2022-09-11T12:16:55;32.70;83.00
13848;DHT22;6994;49.752;6.094;2022-09-11T12:19:22;32.10;83.40
13848;DHT22;6994;49.752;6.094;2022-09-11T12:24:20;32.20;88.80
13848;DHT22;6994;49.752;6.094;2022-09-11T12:26:46;32.70;90.00
13848;DHT22;6994;49.752;6.094;2022-09-11T12:34:22;33.90;81.60
13848;DHT22;6994;49.752;6.094;2022-09-11T12:36:55;33.90;81.50
13848;DHT22;6994;49.752;6.094;2022-09-11T12:39:29;33.90;80.80
13848;DHT22;6994;49.752;6.094;2022-09-11T12:47:28;33.60;77.30
13848;DHT22;6994;49.752;6.094;2022-09-11T12:49:54;32.90;78.70
13848;DHT22;6994;49.752;6.094;2022-09-11T12:52:24;32.50;79.20
13848;DHT22;6994;49.752;6.094;2022-09-11T12:54:48;32.10;80.00
13848;DHT22;6994;49.752;6.094;2022-09-11T12:57:26;31.80;80.20
13848;DHT22;6994;49.752;6.094;2022-09-11T12:59:43;32.10;76.90
13848;DHT22;6994;49.752;6.094;2022-09-11T13:02:26;31.50;79.20
13848;DHT22;6994;49.752;6.094;2022-09-11T13:04:52;32.00;77.60
13848;DHT22;6994;49.752;6.094;2022-09-11T13:07:35;31.90;77.40
13848;DHT22;6994;49.752;6.094;2022-09-11T13:09:59;32.00;78.20
13848;DHT22;6994;49.752;6.094;2022-09-11T13:14:52;32.50;77.10
13848;DHT22;6994;49.752;6.094;2022-09-11T13:17:23;32.80;74.50
13848;DHT22;6994;49.752;6.094;2022-09-11T13:19:49;33.00;72.70
13848;DHT22;6994;49.752;6.094;2022-09-11T13:22:23;33.20;73.40
13848;DHT22;6994;49.752;6.094;2022-09-11T13:24:49;33.70;71.50
13848;DHT22;6994;49.752;6.094;2022-09-11T13:27:25;33.90;69.20
13848;DHT22;6994;49.752;6.094;2022-09-11T13:29:56;34.10;69.70
13848;DHT22;6994;49.752;6.094;2022-09-11T13:32:23;34.40;69.50
13848;DHT22;6994;49.752;6.094;2022-09-11T13:34:53;35.80;65.10
13848;DHT22;6994;49.752;6.094;2022-09-11T13:37:55;35.80;65.10
13848;DHT22;6994;49.752;6.094;2022-09-11T13:40:29;35.80;63.30
13848;DHT22;6994;49.752;6.094;2022-09-11T13:42:55;35.80;63.20
13848;DHT22;6994;49.752;6.094;2022-09-11T13:45:22;36.00;63.10
13848;DHT22;6994;49.752;6.094;2022-09-11T13:47:50;36.20;63.50
13848;DHT22;6994;49.752;6.094;2022-09-11T13:50:17;36.30;62.50
13848;DHT22;6994;49.752;6.094;2022-09-11T13:52:44;36.30;63.40
13848;DHT22;6994;49.752;6.094;2022-09-11T13:55:16;36.20;61.80
13848;DHT22;6994;49.752;6.094;2022-09-11T13:57:54;36.30;61.90
13848;DHT22;6994;49.752;6.094;2022-09-11T14:00:40;35.60;60.80
13848;DHT22;6994;49.752;6.094;2022-09-11T14:03:27;35.60;60.70
13848;DHT22;6994;49.752;6.094;2022-09-11T14:06:08;34.20;61.30
13848;DHT22;6994;49.752;6.094;2022-09-11T14:08:35;32.70;63.70
13848;DHT22;6994;49.752;6.094;2022-09-11T14:11:06;31.30;66.50
13848;DHT22;6994;49.752;6.094;2022-09-11T14:13:43;29.10;73.10
13848;DHT22;6994;49.752;6.094;2022-09-11T14:16:19;29.10;73.60
13848;DHT22;6994;49.752;6.094;2022-09-11T14:18:43;28.10;75.90
13848;DHT22;6994;49.752;6.094;2022-09-11T14:21:19;27.20;79.10
13848;DHT22;6994;49.752;6.094;2022-09-11T14:23:48;26.40;81.60
13848;DHT22;6994;49.752;6.094;2022-09-11T14:26:16;26.20;84.80
13848;DHT22;6994;49.752;6.094;2022-09-11T14:31:26;25.20;88.70
13848;DHT22;6994;49.752;6.094;2022-09-11T14:34:01;24.90;90.20
13848;DHT22;6994;49.752;6.094;2022-09-11T14:36:19;24.60;91.00
13848;DHT22;6994;49.752;6.094;2022-09-11T14:38:46;24.30;91.50
13848;DHT22;6994;49.752;6.094;2022-09-11T14:41:13;24.00;92.20
13848;DHT22;6994;49.752;6.094;2022-09-11T14:43:40;23.70;93.30
13848;DHT22;6994;49.752;6.094;2022-09-11T14:46:08;23.50;94.00
13848;DHT22;6994;49.752;6.094;2022-09-11T14:48:35;23.30;94.50
13848;DHT22;6994;49.752;6.094;2022-09-11T14:51:02;23.10;95.10
13848;DHT22;6994;49.752;6.094;2022-09-11T14:53:30;22.90;95.70
13848;DHT22;6994;49.752;6.094;2022-09-11T14:55:57;22.80;96.20
13848;DHT22;6994;49.752;6.094;2022-09-11T14:58:24;22.60;97.10
13848;DHT22;6994;49.752;6.094;2022-09-11T15:00:51;22.40;97.60
13848;DHT22;6994;49.752;6.094;2022-09-11T15:03:18;22.20;98.10
13848;DHT22;6994;49.752;6.094;2022-09-11T15:05:46;22.00;98.50
13848;DHT22;6994;49.752;6.094;2022-09-11T15:08:13;21.80;99.30
13848;DHT22;6994;49.752;6.094;2022-09-11T15:10:40;21.70;99.90
13848;DHT22;6994;49.752;6.094;2022-09-11T15:13:07;21.60;99.90
13848;DHT22;6994;49.752;6.094;2022-09-11T15:15:34;21.60;99.90
13848;DHT22;6994;49.752;6.094;2022-09-11T15:18:01;21.60;99.90
13848;DHT22;6994;49.752;6.094;2022-09-11T15:20:29;21.70;99.90
13848;DHT22;6994;49.752;6.094;2022-09-11T15:22:56;21.80;99.90
13848;DHT22;6994;49.752;6.094;2022-09-11T15:25:23;21.80;99.90
13848;DHT22;6994;49.752;6.094;2022-09-11T15:27:51;21.90;99.90
13848;DHT22;6994;49.752;6.094;2022-09-11T15:30:21;21.90;99.90
13848;DHT22;6994;49.752;6.094;2022-09-11T15:32:48;21.90;99.90
13848;DHT22;6994;49.752;6.094;2022-09-11T15:35:15;21.90;99.90
13848;DHT22;6994;49.752;6.094;2022-09-11T15:37:43;22.00;99.90
13848;DHT22;6994;49.752;6.094;2022-09-11T15:40:10;22.20;99.90
13848;DHT22;6994;49.752;6.094;2022-09-11T15:42:37;22.30;99.90
13848;DHT22;6994;49.752;6.094;2022-09-11T15:45:05;22.50;99.90
13848;DHT22;6994;49.752;6.094;2022-09-11T15:47:32;22.50;99.90
13848;DHT22;6994;49.752;6.094;2022-09-11T15:50:00;22.60;99.90
13848;DHT22;6994;49.752;6.094;2022-09-11T15:52:30;22.60;99.90
13848;DHT22;6994;49.752;6.094;2022-09-11T15:54:56;22.70;99.90
13848;DHT22;6994;49.752;6.094;2022-09-11T15:57:24;22.70;99.90
13848;DHT22;6994;49.752;6.094;2022-09-11T15:59:51;22.70;99.90
13848;DHT22;6994;49.752;6.094;2022-09-11T16:02:18;22.70;99.90
13848;DHT22;6994;49.752;6.094;2022-09-11T16:04:45;22.70;99.90
13848;DHT22;6994;49.752;6.094;2022-09-11T16:07:12;22.70;99.90
13848;DHT22;6994;49.752;6.094;2022-09-11T16:09:40;22.80;99.90
13848;DHT22;6994;49.752;6.094;2022-09-11T16:12:07;22.80;99.90
13848;DHT22;6994;49.752;6.094;2022-09-11T16:14:35;23.00;99.90
13848;DHT22;6994;49.752;6.094;2022-09-11T16:17:01;22.90;99.90
13848;DHT22;6994;49.752;6.094;2022-09-11T16:19:30;22.70;99.90
13848;DHT22;6994;49.752;6.094;2022-09-11T16:21:57;22.60;99.90
13848;DHT22;6994;49.752;6.094;2022-09-11T16:24:24;22.50;99.90
13848;DHT22;6994;49.752;6.094;2022-09-11T16:26:52;22.30;99.90
13848;DHT22;6994;49.752;6.094;2022-09-11T16:29:22;22.30;99.90
13848;DHT22;6994;49.752;6.094;2022-09-11T16:31:49;22.30;99.90
13848;DHT22;6994;49.752;6.094;2022-09-11T16:34:17;22.30;99.90
13848;DHT22;6994;49.752;6.094;2022-09-11T16:36:44;22.20;99.90
13848;DHT22;6994;49.752;6.094;2022-09-11T16:39:12;22.10;99.90
13848;DHT22;6994;49.752;6.094;2022-09-11T16:41:38;22.20;99.90
13848;DHT22;6994;49.752;6.094;2022-09-11T16:44:06;22.10;99.90
13848;DHT22;6994;49.752;6.094;2022-09-11T16:46:33;22.20;99.90
13848;DHT22;6994;49.752;6.094;2022-09-11T16:49:00;22.10;99.90
13848;DHT22;6994;49.752;6.094;2022-09-11T16:51:27;21.90;99.90
13848;DHT22;6994;49.752;6.094;2022-09-11T16:53:54;21.80;99.90
13848;DHT22;6994;49.752;6.094;2022-09-11T16:56:22;21.50;99.90
13848;DHT22;6994;49.752;6.094;2022-09-11T16:58:50;21.40;99.90
13848;DHT22;6994;49.752;6.094;2022-09-11T17:01:19;21.30;99.90
13848;DHT22;6994;49.752;6.094;2022-09-11T17:03:48;21.20;99.90
13848;DHT22;6994;49.752;6.094;2022-09-11T17:06:14;21.10;99.90
13848;DHT22;6994;49.752;6.094;2022-09-11T17:08:42;21.00;99.90
13848;DHT22;6994;49.752;6.094;2022-09-11T17:11:10;21.00;99.90
13848;DHT22;6994;49.752;6.094;2022-09-11T17:13:36;20.90;99.90
13848;DHT22;6994;49.752;6.094;2022-09-11T17:16:04;20.80;99.90
13848;DHT22;6994;49.752;6.094;2022-09-11T17:18:31;20.70;99.90
13848;DHT22;6994;49.752;6.094;2022-09-11T17:21:01;20.60;99.90
13848;DHT22;6994;49.752;6.094;2022-09-11T17:23:25;20.80;99.90
13848;DHT22;6994;49.752;6.094;2022-09-11T17:25:52;20.80;99.90
13848;DHT22;6994;49.752;6.094;2022-09-11T17:28:20;20.70;99.90
13848;DHT22;6994;49.752;6.094;2022-09-11T17:30:47;20.60;99.90
13848;DHT22;6994;49.752;6.094;2022-09-11T17:33:15;20.40;99.90
13848;DHT22;6994;49.752;6.094;2022-09-11T17:35:42;20.30;99.90
13848;DHT22;6994;49.752;6.094;2022-09-11T17:38:09;20.30;99.90